createdAt,value
2023-03-14T00:01:23.556Z,98830.50
2023-03-14T00:03:52.316Z,98827.72
2023-03-14T00:06:21.438Z,98824.03
2023-03-14T00:08:50.123Z,98823.03
2023-03-14T00:11:21.432Z,98821.13
2023-03-14T00:13:51.208Z,98826.34
2023-03-14T00:16:20.511Z,98825.72
2023-03-14T00:18:49.158Z,98834.34
2023-03-14T00:21:18.360Z,98833.91
2023-03-14T00:23:46.795Z,98843.94
2023-03-14T00:26:18.613Z,98863.53
2023-03-14T00:28:48.307Z,98856.78
2023-03-14T00:31:16.909Z,98854.03
2023-03-14T00:33:46.111Z,98852.47
2023-03-14T00:36:18.391Z,98868.50
2023-03-14T00:38:49.519Z,98878.44
2023-03-14T00:41:21.112Z,98883.59
2023-03-14T00:43:50.549Z,98867.50
2023-03-14T00:46:19.191Z,98870.78
2023-03-14T00:48:48.185Z,98874.50
2023-03-14T00:51:16.689Z,98875.69
2023-03-14T00:53:45.258Z,98873.19
2023-03-14T00:56:14.329Z,98878.28
2023-03-14T00:58:42.760Z,98875.72
2023-03-14T01:01:15.017Z,98872.94
2023-03-14T01:03:43.500Z,98874.28
2023-03-14T01:06:17.881Z,98882.44
2023-03-14T01:08:46.618Z,98882.41
2023-03-14T01:11:18.173Z,98879.75
2023-03-14T01:13:47.370Z,98890.88
2023-03-14T01:16:16.622Z,98874.34
2023-03-14T01:18:46.339Z,98869.00
2023-03-14T01:21:22.362Z,98868.53
2023-03-14T01:23:52.660Z,98869.56
2023-03-14T01:26:23.989Z,98858.38
2023-03-14T01:28:54.658Z,98856.69
2023-03-14T01:31:23.726Z,98855.38
2023-03-14T01:33:52.386Z,98846.78
2023-03-14T01:36:20.968Z,98843.22
2023-03-14T01:38:49.761Z,98834.13
2023-03-14T01:41:24.405Z,98829.38
2023-03-14T01:43:53.196Z,98816.84
2023-03-14T01:46:41.882Z,98823.34
2023-03-14T01:49:15.628Z,98813.75
2023-03-14T01:51:57.189Z,98806.78
2023-03-14T01:54:37.515Z,98814.81
2023-03-14T01:57:14.379Z,98804.44
2023-03-14T01:59:53.396Z,98814.63
2023-03-14T02:02:23.456Z,98809.72
2023-03-14T02:04:52.351Z,98812.84
2023-03-14T02:07:26.743Z,98805.06
2023-03-14T02:09:57.158Z,98804.19
2023-03-14T02:12:26.585Z,98802.72
2023-03-14T02:14:54.972Z,98793.50
2023-03-14T02:17:24.967Z,98789.25
2023-03-14T02:20:12.417Z,98790.28
2023-03-14T02:22:43.346Z,98807.19
2023-03-14T02:25:24.157Z,98801.78
2023-03-14T02:27:52.979Z,98796.13
2023-03-14T02:30:26.896Z,98793.06
2023-03-14T02:33:02.190Z,98801.16
2023-03-14T02:35:57.117Z,98789.06
2023-03-14T02:38:36.801Z,98793.13
2023-03-14T02:41:05.720Z,98797.44
2023-03-14T02:43:34.393Z,98792.41
2023-03-14T02:46:06.290Z,98771.88
2023-03-14T02:48:42.360Z,98759.59
2023-03-14T02:51:11.689Z,98757.22
2023-03-14T02:53:42.174Z,98766.34
2023-03-14T02:56:11.206Z,98761.38
2023-03-14T02:58:40.207Z,98779.72
2023-03-14T03:01:08.643Z,98773.50
2023-03-14T03:03:37.121Z,98775.44
2023-03-14T03:06:05.823Z,98780.72
2023-03-14T03:08:34.263Z,98780.25
2023-03-14T03:11:03.216Z,98777.66
2023-03-14T03:13:31.654Z,98782.81
2023-03-14T03:16:00.101Z,98787.59
2023-03-14T03:18:28.520Z,98788.09
2023-03-14T03:21:00.903Z,98786.63
2023-03-14T03:23:29.908Z,98776.97
2023-03-14T03:25:58.600Z,98780.72
2023-03-14T03:28:27.084Z,98759.41
2023-03-14T03:30:55.602Z,98759.84
2023-03-14T03:33:25.623Z,98769.94
2023-03-14T03:35:54.161Z,98766.47
2023-03-14T03:38:22.735Z,98769.91
2023-03-14T03:40:51.113Z,98763.69
2023-03-14T03:43:19.521Z,98765.56
2023-03-14T03:45:47.985Z,98766.72
2023-03-14T03:48:16.385Z,98768.59
2023-03-14T03:50:46.541Z,98761.56
2023-03-14T03:53:17.904Z,98754.72
2023-03-14T03:55:52.133Z,98751.81
2023-03-14T03:58:20.534Z,98752.63
2023-03-14T04:00:48.951Z,98748.94
2023-03-14T04:03:17.363Z,98755.38
2023-03-14T04:05:46.015Z,98737.38
2023-03-14T04:08:14.381Z,98743.44
2023-03-14T04:10:42.779Z,98745.06
2023-03-14T04:13:11.325Z,98736.78
2023-03-14T04:15:39.734Z,98741.84
2023-03-14T04:18:08.140Z,98736.50
2023-03-14T04:20:36.489Z,98745.09
2023-03-14T04:23:04.918Z,98753.75
2023-03-14T04:25:33.441Z,98745.41
2023-03-14T04:28:02.632Z,98741.31
2023-03-14T04:30:31.116Z,98725.53
2023-03-14T04:32:59.579Z,98736.28
2023-03-14T04:35:28.438Z,98728.09
2023-03-14T04:37:56.843Z,98719.78
2023-03-14T04:40:25.689Z,98723.19
2023-03-14T04:42:54.072Z,98728.66
2023-03-14T04:45:22.423Z,98713.59
2023-03-14T04:47:50.834Z,98716.34
2023-03-14T04:50:19.378Z,98727.75
2023-03-14T04:52:47.869Z,98732.19
2023-03-14T04:55:16.367Z,98729.19
2023-03-14T04:57:44.762Z,98730.59
2023-03-14T05:00:13.385Z,98729.97
2023-03-14T05:02:41.777Z,98722.75
2023-03-14T05:05:10.164Z,98733.13
2023-03-14T05:07:38.563Z,98727.00
2023-03-14T05:10:07.401Z,98730.59
2023-03-14T05:12:35.918Z,98724.88
2023-03-14T05:15:05.495Z,98724.22
2023-03-14T05:17:34.585Z,98710.81
2023-03-14T05:20:09.129Z,98713.72
2023-03-14T05:22:37.554Z,98710.44
2023-03-14T05:25:07.118Z,98713.75
2023-03-14T05:27:36.352Z,98717.44
2023-03-14T05:30:06.349Z,98709.81
2023-03-14T05:32:34.836Z,98709.66
2023-03-14T05:35:03.322Z,98709.53
2023-03-14T05:37:31.823Z,98709.69
2023-03-14T05:40:00.263Z,98706.16
2023-03-14T05:42:28.763Z,98710.66
2023-03-14T05:44:57.143Z,98701.47
2023-03-14T05:47:25.910Z,98692.00
2023-03-14T05:49:54.450Z,98695.06
2023-03-14T05:52:23.254Z,98701.72
2023-03-14T05:54:51.717Z,98693.47
2023-03-14T05:57:20.152Z,98693.78
2023-03-14T05:59:48.671Z,98697.06
2023-03-14T06:02:17.197Z,98692.91
2023-03-14T06:04:45.690Z,98690.53
2023-03-14T06:07:14.169Z,98681.19
2023-03-14T06:09:42.564Z,98688.97
2023-03-14T06:12:11.065Z,98693.00
2023-03-14T06:14:39.551Z,98689.06
2023-03-14T06:17:08.057Z,98687.94
2023-03-14T06:19:36.459Z,98685.09
2023-03-14T06:22:04.887Z,98688.06
2023-03-14T06:24:33.499Z,98698.53
2023-03-14T06:27:03.817Z,98696.72
2023-03-14T06:29:32.291Z,98692.94
2023-03-14T06:32:00.972Z,98688.38
2023-03-14T06:34:29.534Z,98696.34
2023-03-14T06:36:57.999Z,98700.13
2023-03-14T06:39:26.396Z,98694.81
2023-03-14T06:41:54.899Z,98697.13
2023-03-14T06:44:23.363Z,98699.94
2023-03-14T06:46:51.823Z,98704.94
2023-03-14T06:49:20.309Z,98703.06
2023-03-14T06:51:48.761Z,98701.47
2023-03-14T06:54:17.170Z,98702.63
2023-03-14T06:56:45.652Z,98705.00
2023-03-14T06:59:14.166Z,98715.13
2023-03-14T07:01:42.791Z,98711.31
2023-03-14T07:04:11.391Z,98723.94
2023-03-14T07:06:40.630Z,98717.38
2023-03-14T07:09:09.060Z,98723.91
2023-03-14T07:11:38.117Z,98735.88
2023-03-14T07:14:06.642Z,98731.63
2023-03-14T07:16:35.295Z,98727.69
2023-03-14T07:19:04.114Z,98744.88
2023-03-14T07:21:33.702Z,98741.47
2023-03-14T07:24:02.363Z,98743.97
2023-03-14T07:26:30.857Z,98746.06
2023-03-14T07:29:00.211Z,98753.13
2023-03-14T07:31:28.724Z,98760.03
2023-03-14T07:33:57.385Z,98775.59
2023-03-14T07:36:25.763Z,98797.09
2023-03-14T07:38:54.179Z,98824.44
2023-03-14T07:41:24.005Z,98850.34
2023-03-14T07:43:52.468Z,98866.81
2023-03-14T07:46:21.086Z,98885.91
2023-03-14T07:48:49.493Z,98895.69
2023-03-14T07:51:17.966Z,98903.94
2023-03-14T07:53:46.943Z,98917.50
2023-03-14T07:56:15.342Z,98926.91
2023-03-14T07:58:43.746Z,98939.88
2023-03-14T08:01:12.381Z,98938.41
2023-03-14T08:03:40.853Z,98947.03
2023-03-14T08:06:09.348Z,98956.28
2023-03-14T08:08:38.008Z,98958.88
2023-03-14T08:11:09.704Z,98971.53
2023-03-14T08:13:38.740Z,98979.94
2023-03-14T08:16:07.834Z,98995.91
2023-03-14T08:18:36.357Z,98991.84
2023-03-14T08:21:04.937Z,99013.00
2023-03-14T08:23:33.345Z,99003.50
2023-03-14T08:26:01.805Z,99021.09
2023-03-14T08:28:31.720Z,99042.47
2023-03-14T08:31:02.392Z,99056.22
2023-03-14T08:33:31.269Z,99055.53
2023-03-14T08:36:01.528Z,99064.19
2023-03-14T08:38:30.083Z,99064.19
2023-03-14T08:41:03.305Z,99076.97
2023-03-14T08:43:31.862Z,99092.66
2023-03-14T08:46:01.914Z,99097.59
2023-03-14T08:48:31.374Z,99111.41
2023-03-14T08:51:11.732Z,99115.53
2023-03-14T08:53:40.923Z,99128.53
2023-03-14T08:56:10.969Z,99130.22
2023-03-14T08:58:39.623Z,99142.56
2023-03-14T09:01:10.403Z,99154.31
2023-03-14T09:03:39.278Z,99169.75
2023-03-14T09:06:10.540Z,99168.13
2023-03-14T09:08:39.752Z,99178.03
2023-03-14T09:11:09.789Z,99179.28
2023-03-14T09:13:38.570Z,99194.34
2023-03-14T09:16:08.323Z,99200.75
2023-03-14T09:18:36.968Z,99223.00
2023-03-14T09:21:05.647Z,99215.16
2023-03-14T09:23:34.145Z,99218.53
2023-03-14T09:26:02.538Z,99230.28
2023-03-14T09:28:31.424Z,99237.50
2023-03-14T09:31:06.963Z,99238.34
2023-03-14T09:33:36.299Z,99252.78
2023-03-14T09:36:06.483Z,99257.78
2023-03-14T09:38:35.474Z,99263.47
2023-03-14T09:41:13.110Z,99285.44
2023-03-14T09:43:44.510Z,99283.44
2023-03-14T09:46:13.653Z,99302.50
2023-03-14T09:48:42.693Z,99331.56
2023-03-14T09:51:17.274Z,99343.38
2023-03-14T09:53:48.884Z,99359.59
2023-03-14T09:56:27.745Z,99382.25
2023-03-14T09:59:00.100Z,99399.19
2023-03-14T10:01:32.592Z,99415.78
2023-03-14T10:04:14.416Z,99437.53
2023-03-14T10:06:42.959Z,99450.66
2023-03-14T10:09:26.001Z,99456.75
2023-03-14T10:11:56.893Z,99472.47
2023-03-14T10:14:37.026Z,99488.03
2023-03-14T10:17:11.331Z,99498.97
2023-03-14T10:20:00.235Z,99510.63
2023-03-14T10:22:31.829Z,99519.94
2023-03-14T10:25:03.985Z,99529.69
2023-03-14T10:27:34.062Z,99543.53
2023-03-14T10:30:07.885Z,99551.16
2023-03-14T10:32:38.792Z,99567.81
2023-03-14T10:35:16.499Z,99584.25
2023-03-14T10:37:50.992Z,99591.03
2023-03-14T10:40:21.703Z,99592.31
2023-03-14T10:42:52.968Z,99609.50
2023-03-14T10:45:39.980Z,99608.00
2023-03-14T10:48:31.604Z,99624.84
2023-03-14T10:51:04.640Z,99631.88
2023-03-14T10:53:46.615Z,99645.44
2023-03-14T10:56:20.860Z,99662.97
2023-03-14T10:58:52.140Z,99670.31
2023-03-14T11:01:39.560Z,99679.59
2023-03-14T11:04:23.270Z,99697.53
2023-03-14T11:07:02.762Z,99706.88
2023-03-14T11:09:47.283Z,99720.56
2023-03-14T11:12:55.915Z,99724.31
2023-03-14T11:15:36.179Z,99722.97
2023-03-14T11:18:22.017Z,99731.50
2023-03-14T11:20:59.797Z,99749.19
2023-03-14T11:23:51.508Z,99760.84
2023-03-14T11:26:33.547Z,99768.13
2023-03-14T11:29:22.022Z,99775.66
2023-03-14T11:31:50.911Z,99788.94
2023-03-14T11:34:54.704Z,99794.78
2023-03-14T11:37:46.791Z,99801.72
2023-03-14T11:40:20.653Z,99815.88
2023-03-14T11:43:00.640Z,99823.81
2023-03-14T11:45:39.175Z,99832.88
2023-03-14T11:48:34.175Z,99858.97
2023-03-14T11:51:08.464Z,99888.03
2023-03-14T11:54:01.888Z,99870.78
2023-03-14T11:56:34.294Z,99871.25
2023-03-14T11:59:08.454Z,99872.66
2023-03-14T12:02:06.613Z,99885.81
2023-03-14T12:05:12.714Z,99888.81
2023-03-14T12:08:20.570Z,99904.03
2023-03-14T12:11:05.535Z,99907.81
2023-03-14T12:13:38.839Z,99910.63
2023-03-14T12:16:25.199Z,99921.75
2023-03-14T12:18:54.847Z,99921.19
2023-03-14T12:21:25.571Z,99929.22
2023-03-14T12:23:56.572Z,99936.03
2023-03-14T12:26:27.411Z,99945.31
2023-03-14T12:28:58.856Z,99940.66
2023-03-14T12:31:33.145Z,99944.44
2023-03-14T12:34:11.573Z,99955.06
2023-03-14T12:36:50.543Z,99956.47
2023-03-14T12:39:47.115Z,99977.72
2023-03-14T12:42:44.054Z,99969.81
2023-03-14T12:45:24.511Z,99968.75
2023-03-14T12:47:55.629Z,99973.25
2023-03-14T12:50:36.535Z,99984.75
2023-03-14T12:53:43.427Z,99992.72
2023-03-14T12:56:41.722Z,99999.03
2023-03-14T12:59:32.274Z,100005.28
2023-03-14T13:02:23.406Z,100011.59
2023-03-14T13:05:01.770Z,100036.31
2023-03-14T13:07:56.290Z,100019.69
2023-03-14T13:10:37.145Z,100028.06
2023-03-14T13:13:07.339Z,100043.56
2023-03-14T13:15:42.931Z,100035.69
2023-03-14T13:18:28.040Z,100044.69
2023-03-14T13:21:02.368Z,100045.28
2023-03-14T13:23:33.877Z,100066.13
2023-03-14T13:26:02.708Z,100079.94
2023-03-14T13:28:32.035Z,100091.66
2023-03-14T13:31:06.547Z,100102.38
2023-03-14T13:33:35.783Z,100104.53
2023-03-14T13:36:06.634Z,100104.59
2023-03-14T13:38:37.242Z,100121.00
2023-03-14T13:41:08.001Z,100136.22
2023-03-14T13:43:44.805Z,100131.44
2023-03-14T13:46:17.660Z,100136.44
2023-03-14T13:49:10.309Z,100153.63
2023-03-14T13:51:40.389Z,100157.97
2023-03-14T13:54:20.142Z,100174.41
2023-03-14T13:56:49.805Z,100176.47
2023-03-14T13:59:31.578Z,100183.41
2023-03-14T14:02:04.492Z,100197.38
2023-03-14T14:04:37.068Z,100197.22
2023-03-14T14:07:12.822Z,100211.00
2023-03-14T14:09:48.405Z,100230.44
2023-03-14T14:12:22.610Z,100232.63
2023-03-14T14:14:57.724Z,100232.19
2023-03-14T14:17:32.116Z,100245.31
2023-03-14T14:20:04.234Z,100264.81
2023-03-14T14:22:33.638Z,100258.00
2023-03-14T14:25:02.863Z,100281.44
2023-03-14T14:27:41.814Z,100286.47
2023-03-14T14:30:19.428Z,100282.03
2023-03-14T14:32:50.401Z,100284.41
2023-03-14T14:35:36.169Z,100302.47
2023-03-14T14:38:14.063Z,100318.00
2023-03-14T14:40:47.326Z,100327.22
2023-03-14T14:43:28.692Z,100324.31
2023-03-14T14:45:59.080Z,100329.59
2023-03-14T14:48:28.608Z,100346.28
2023-03-14T14:51:01.637Z,100356.69
2023-03-14T14:53:42.047Z,100358.16
2023-03-14T14:56:25.801Z,100373.75
2023-03-14T14:59:01.847Z,100371.75
2023-03-14T15:01:37.256Z,100378.47
2023-03-14T15:04:13.533Z,100379.91
2023-03-14T15:06:49.209Z,100400.13
2023-03-14T15:09:18.617Z,100406.84
2023-03-14T15:11:48.590Z,100420.28
2023-03-14T15:14:17.087Z,100435.31
2023-03-14T15:16:45.577Z,100422.16
2023-03-14T15:19:33.984Z,100429.13
2023-03-14T15:22:02.410Z,100435.94
2023-03-14T15:24:30.960Z,100435.38
2023-03-14T15:26:59.629Z,100447.31
2023-03-14T15:29:29.496Z,100464.13
2023-03-14T15:31:59.247Z,100466.63
2023-03-14T15:34:28.996Z,100471.66
2023-03-14T15:36:57.337Z,100478.69
2023-03-14T15:39:25.776Z,100468.13
2023-03-14T15:41:54.169Z,100475.16
2023-03-14T15:44:22.940Z,100485.56
2023-03-14T15:46:51.349Z,100499.31
2023-03-14T15:49:19.809Z,100491.53
2023-03-14T15:51:48.277Z,100497.19
2023-03-14T15:54:16.643Z,100504.44
2023-03-14T15:56:45.042Z,100525.84
2023-03-14T15:59:13.817Z,100521.00
2023-03-14T16:01:42.194Z,100523.59
2023-03-14T16:04:10.624Z,100536.25
2023-03-14T16:06:39.146Z,100548.63
2023-03-14T16:09:08.026Z,100552.94
2023-03-14T16:11:36.520Z,100543.34
2023-03-14T16:14:05.438Z,100545.34
2023-03-14T16:16:34.460Z,100554.34
2023-03-14T16:19:03.190Z,100557.44
2023-03-14T16:21:33.590Z,100564.53
2023-03-14T16:24:03.347Z,100572.25
2023-03-14T16:26:35.262Z,100578.16
2023-03-14T16:29:03.919Z,100586.00
2023-03-14T16:31:32.478Z,100603.34
2023-03-14T16:34:04.178Z,100604.72
2023-03-14T16:36:32.607Z,100608.69
2023-03-14T16:39:01.096Z,100611.06
2023-03-14T16:41:31.519Z,100612.34
2023-03-14T16:44:01.720Z,100627.38
2023-03-14T16:49:18.807Z,100625.25
2023-03-14T16:51:47.364Z,100634.84
2023-03-14T16:54:15.804Z,100646.19
2023-03-14T16:56:45.220Z,100640.41
2023-03-14T17:01:43.901Z,100645.91
2023-03-14T17:04:12.536Z,100651.25
2023-03-14T17:06:40.970Z,100656.16
2023-03-14T17:09:09.380Z,100655.22
2023-03-14T17:11:38.216Z,100667.56
2023-03-14T17:14:06.617Z,100673.06
2023-03-14T17:16:35.188Z,100679.66
2023-03-14T17:19:03.854Z,100676.38
2023-03-14T17:21:32.412Z,100683.69
2023-03-14T17:24:00.876Z,100694.19
2023-03-14T17:26:29.340Z,100695.28
2023-03-14T17:28:57.785Z,100703.91
2023-03-14T17:31:26.447Z,100714.50
2023-03-14T17:33:55.180Z,100712.41
2023-03-14T17:36:28.760Z,100725.16
2023-03-14T17:38:58.633Z,100734.72
2023-03-14T17:41:27.250Z,100737.22
2023-03-14T17:43:57.244Z,100746.66
2023-03-14T17:46:27.189Z,100751.53
2023-03-14T17:48:55.710Z,100752.63
2023-03-14T17:51:24.223Z,100754.97
2023-03-14T17:53:52.639Z,100766.97
2023-03-14T17:56:21.096Z,100767.41
2023-03-14T17:58:49.597Z,100778.47
2023-03-14T18:01:19.320Z,100788.91
2023-03-14T18:03:48.192Z,100783.53
2023-03-14T18:06:17.882Z,100790.34
2023-03-14T18:08:47.209Z,100794.25
2023-03-14T18:11:16.173Z,100800.19
2023-03-14T18:13:45.117Z,100806.22
2023-03-14T18:16:14.502Z,100812.53
2023-03-14T18:18:47.829Z,100807.63
2023-03-14T18:21:17.859Z,100812.38
2023-03-14T18:23:48.304Z,100805.66
2023-03-14T18:26:17.036Z,100816.22
2023-03-14T18:28:46.940Z,100817.78
2023-03-14T18:31:18.203Z,100823.31
2023-03-14T18:33:47.790Z,100838.38
2023-03-14T18:36:16.715Z,100842.09
2023-03-14T18:38:48.479Z,100848.41
2023-03-14T18:41:19.990Z,100848.34
2023-03-14T18:43:48.369Z,100852.28
2023-03-14T18:46:17.025Z,100847.38
2023-03-14T18:48:45.576Z,100856.53
2023-03-14T18:51:15.926Z,100860.31
2023-03-14T18:53:45.751Z,100866.53
2023-03-14T18:56:14.523Z,100860.38
2023-03-14T18:58:48.447Z,100866.19
2023-03-14T19:01:20.120Z,100875.09
2023-03-14T19:03:49.005Z,100875.06
2023-03-14T19:06:18.103Z,100874.97
2023-03-14T19:08:46.634Z,100880.72
2023-03-14T19:11:15.195Z,100877.81
2023-03-14T19:13:43.859Z,100882.44
2023-03-14T19:16:14.374Z,100881.19
2023-03-14T19:18:43.171Z,100877.63
2023-03-14T19:21:13.701Z,100883.38
2023-03-14T19:23:46.389Z,100891.47
2023-03-14T19:26:16.240Z,100902.56
2023-03-14T19:28:44.696Z,100897.38
2023-03-14T19:31:14.108Z,100901.50
2023-03-14T19:33:43.236Z,100898.84
2023-03-14T19:36:27.151Z,100900.88
2023-03-14T19:38:56.207Z,100903.47
2023-03-14T19:41:25.728Z,100914.72
2023-03-14T19:43:57.335Z,100909.00
2023-03-14T19:46:25.859Z,100919.59
2023-03-14T19:48:54.407Z,100923.06
2023-03-14T19:51:23.643Z,100922.44
2023-03-14T19:53:52.912Z,100930.31
2023-03-14T19:56:23.887Z,100930.16
2023-03-14T19:58:52.795Z,100921.38
2023-03-14T20:01:21.952Z,100934.59
2023-03-14T20:03:50.324Z,100922.13
2023-03-14T20:06:18.776Z,100923.63
2023-03-14T20:08:47.766Z,100927.47
2023-03-14T20:11:16.325Z,100924.50
2023-03-14T20:13:44.851Z,100929.84
2023-03-14T20:16:13.436Z,100939.78
2023-03-14T20:18:42.248Z,100933.44
2023-03-14T20:21:15.083Z,100932.75
2023-03-14T20:23:44.214Z,100935.34
2023-03-14T20:26:12.709Z,100941.66
2023-03-14T20:28:42.744Z,100942.56
2023-03-14T20:31:11.506Z,100942.84
2023-03-14T20:33:39.961Z,100950.44
2023-03-14T20:36:09.320Z,100948.75
2023-03-14T20:38:37.996Z,100954.84
2023-03-14T20:41:07.962Z,100957.09
2023-03-14T20:43:37.238Z,100962.47
2023-03-14T20:46:06.442Z,100969.06
2023-03-14T20:48:35.071Z,100964.63
2023-03-14T20:51:04.003Z,100971.69
2023-03-14T20:53:32.427Z,100970.75
2023-03-14T20:56:00.883Z,100972.56
2023-03-14T20:58:29.342Z,100966.97
2023-03-14T21:00:58.006Z,100970.09
2023-03-14T21:03:26.500Z,100973.88
2023-03-14T21:05:54.993Z,100973.75
2023-03-14T21:08:25.098Z,100972.56
2023-03-14T21:10:55.203Z,100973.06
2023-03-14T21:13:24.486Z,100978.31
2023-03-14T21:15:53.182Z,100971.50
2023-03-14T21:18:23.139Z,100976.94
2023-03-14T21:20:54.579Z,100968.59
2023-03-14T21:23:26.597Z,100965.56
2023-03-14T21:25:56.804Z,100974.66
2023-03-14T21:28:25.412Z,100963.81
2023-03-14T21:30:54.967Z,100963.81
2023-03-14T21:33:23.605Z,100967.50
2023-03-14T21:35:53.048Z,100967.06
2023-03-14T21:38:21.488Z,100975.41
2023-03-14T21:40:56.965Z,100964.59
2023-03-14T21:43:26.577Z,100977.53
2023-03-14T21:45:55.342Z,100970.56
2023-03-14T21:48:23.960Z,100982.19
2023-03-14T21:50:53.251Z,100982.13
2023-03-14T21:53:21.690Z,100980.91
2023-03-14T21:55:52.532Z,100968.13
2023-03-14T21:58:21.040Z,100969.75
2023-03-14T22:00:49.722Z,100983.94
2023-03-14T22:03:19.728Z,100982.09
2023-03-14T22:05:48.172Z,100972.94
2023-03-14T22:08:19.663Z,100983.75
2023-03-14T22:10:52.844Z,100972.56
2023-03-14T22:13:23.245Z,100967.47
2023-03-14T22:15:51.908Z,100976.72
2023-03-14T22:18:20.387Z,100975.69
2023-03-14T22:20:48.838Z,100987.44
2023-03-14T22:23:17.273Z,100987.59
2023-03-14T22:25:49.319Z,100989.75
2023-03-14T22:28:18.785Z,100990.09
2023-03-14T22:30:51.440Z,100991.09
2023-03-14T22:33:20.535Z,100991.34
2023-03-14T22:35:50.915Z,100995.28
2023-03-14T22:38:19.450Z,100993.41
2023-03-14T22:40:48.608Z,101001.44
2023-03-14T22:43:17.168Z,101002.28
2023-03-14T22:45:46.035Z,101013.88
2023-03-14T22:48:15.188Z,101008.72
2023-03-14T22:50:43.803Z,101018.63
2023-03-14T22:53:12.214Z,101028.31
2023-03-14T22:55:40.631Z,101028.19
2023-03-14T22:58:09.773Z,101032.34
2023-03-14T23:00:38.917Z,101035.16
2023-03-14T23:03:07.473Z,101037.47
2023-03-14T23:05:36.680Z,101041.16
2023-03-14T23:08:05.511Z,101040.56
2023-03-14T23:10:34.168Z,101038.59
2023-03-14T23:13:05.608Z,101027.44
2023-03-14T23:15:34.355Z,101031.94
2023-03-14T23:18:02.782Z,101034.16
2023-03-14T23:20:31.401Z,101042.47
2023-03-14T23:22:59.772Z,101039.81
2023-03-14T23:25:30.090Z,101047.28
2023-03-14T23:28:01.273Z,101054.34
2023-03-14T23:30:29.908Z,101064.44
2023-03-14T23:32:58.498Z,101062.78
2023-03-14T23:35:27.054Z,101063.28
2023-03-14T23:37:55.442Z,101052.03
2023-03-14T23:40:23.905Z,101064.97
2023-03-14T23:42:52.414Z,101066.78
2023-03-14T23:45:20.852Z,101073.28
2023-03-14T23:47:49.274Z,101068.19
2023-03-14T23:50:17.867Z,101072.63
2023-03-14T23:52:46.248Z,101074.09
2023-03-14T23:55:14.757Z,101078.47
2023-03-14T23:57:43.256Z,101074.69
